Time;durP1;ratioP1;P1;durP2;ratioP2;P2;SDS_P1;SDS_P2;PMS_P1;PMS_P2;Temp;Humidity;BMP_temperature;BMP_pressure;BME280_temperature;BME280_humidity;BME280_pressure;Samples;Min_cycle;Max_cycle;Signal;HPM_P1;HPM_P2
2023/04/06 00:00:50;;;;;;;1.42;1.33;;;;;;;7.01;47.07;101245.16;5167074;28;20058;-81
2023/04/06 00:03:20;;;;;;;0.32;0.32;;;;;;;6.97;47.75;101239.94;5164628;28;20054;-80
2023/04/06 00:05:51;;;;;;;0.57;0.57;;;;;;;6.95;47.40;101241.69;5163124;28;20116;-81
2023/04/06 00:08:23;;;;;;;1.83;1.63;;;;;;;6.91;47.72;101236.47;5146850;28;20022;-79
2023/04/06 00:10:54;;;;;;;0.65;0.65;;;;;;;6.90;47.54;101234.72;5147174;28;20121;-81
2023/04/06 00:13:25;;;;;;;1.20;1.10;;;;;;;6.89;47.25;101233.03;5137648;28;20082;-80
2023/04/06 00:15:55;;;;;;;0.75;0.75;;;;;;;6.83;47.78;101227.81;5162294;28;20038;-81
2023/04/06 00:18:26;;;;;;;0.50;0.50;;;;;;;6.81;48.01;101226.97;5169319;28;20530;-81
2023/04/06 00:20:56;;;;;;;0.95;0.95;;;;;;;6.80;48.10;101233.06;5164238;28;20122;-80
2023/04/06 00:23:27;;;;;;;0.93;0.93;;;;;;;6.81;47.94;101224.34;5180615;28;20041;-80
2023/04/06 00:25:57;;;;;;;0.85;0.85;;;;;;;6.78;46.93;101227.81;5163010;28;20608;-80
2023/04/06 00:28:29;;;;;;;0.40;0.40;;;;;;;6.73;48.09;101221.75;5165577;28;20034;-80
2023/04/06 00:31:00;;;;;;;1.00;1.00;;;;;;;6.69;47.96;101221.78;5164522;28;20108;-80
2023/04/06 00:33:30;;;;;;;0.80;0.80;;;;;;;6.66;47.80;101208.72;5161615;28;20031;-80
2023/04/06 00:36:01;;;;;;;1.13;1.08;;;;;;;6.66;48.57;101220.03;5160350;28;20042;-80
2023/04/06 00:38:32;;;;;;;1.23;1.13;;;;;;;6.54;48.70;101215.72;5132048;28;20058;-81
2023/04/06 00:41:04;;;;;;;0.75;0.75;;;;;;;6.59;48.23;101207.91;5167065;28;20093;-81
2023/04/06 00:43:34;;;;;;;0.70;0.70;;;;;;;6.57;47.83;101212.25;5147796;28;20030;-79
2023/04/06 00:46:05;;;;;;;2.63;2.42;;;;;;;6.53;47.83;101208.78;5170492;28;20038;-79
2023/04/06 00:48:36;;;;;;;4.40;1.65;;;;;;;6.51;48.38;101209.66;5165325;28;20038;-80
2023/04/06 00:51:06;;;;;;;0.50;0.50;;;;;;;6.41;48.98;101204.47;5163463;28;20046;-81
2023/04/06 00:53:37;;;;;;;1.27;1.25;;;;;;;6.41;48.75;101199.25;5146806;28;20041;-80
2023/04/06 00:56:09;;;;;;;0.43;0.43;;;;;;;6.41;48.45;101201.84;5164410;28;20046;-79
2023/04/06 00:58:40;;;;;;;0.30;0.30;;;;;;;6.39;48.44;101200.13;5163380;28;20038;-79
2023/04/06 01:01:10;;;;;;;1.10;1.00;;;;;;;6.29;48.37;101197.53;5151092;28;20039;-81
2023/04/06 01:03:42;;;;;;;1.42;1.33;;;;;;;6.27;49.16;101201.03;5156903;28;20088;-81
2023/04/06 01:06:12;;;;;;;1.05;1.05;;;;;;;6.26;48.81;101194.94;5165697;28;20065;-81
2023/04/06 01:08:43;;;;;;;1.10;1.10;;;;;;;6.26;49.11;101189.72;5165678;28;20038;-81
2023/04/06 01:11:13;;;;;;;0.60;0.60;;;;;;;6.25;48.30;101187.97;5164982;28;20397;-80
2023/04/06 01:13:44;;;;;;;0.85;0.85;;;;;;;6.24;49.65;101183.63;5148947;28;20041;-80
2023/04/06 01:16:14;;;;;;;1.27;1.17;;;;;;;6.22;49.27;101192.31;5131860;28;20185;-81
2023/04/06 01:18:45;;;;;;;0.88;0.88;;;;;;;5.97;51.11;101184.50;5164734;28;20543;-81
2023/04/06 01:21:16;;;;;;;1.52;1.38;;;;;;;6.05;49.64;101188.00;5163110;28;20086;-80
2023/04/06 01:23:47;;;;;;;2.20;2.05;;;;;;;6.08;49.35;101181.91;5151374;28;20058;-81
2023/04/06 01:26:17;;;;;;;0.98;0.98;;;;;;;6.03;49.83;101175.84;5163030;28;20061;-81
2023/04/06 01:28:48;;;;;;;0.68;0.68;;;;;;;6.08;49.67;101174.09;5148395;28;20034;-81
2023/04/06 01:31:18;;;;;;;3.60;2.92;;;;;;;6.06;49.04;101175.84;5145234;28;20105;-78
2023/04/06 01:33:49;;;;;;;0.95;0.95;;;;;;;5.96;50.07;101161.94;5163718;28;20041;-78
2023/04/06 01:36:20;;;;;;;1.95;1.85;;;;;;;5.95;49.62;101163.66;5142946;28;20047;-79
2023/04/06 01:38:50;;;;;;;0.88;0.88;;;;;;;5.92;49.70;101166.28;5157579;28;20033;-78
2023/04/06 01:41:21;;;;;;;6.60;2.47;;;;;;;5.90;49.03;101155.00;5174273;28;20705;-78
2023/04/06 01:43:54;;;;;;;0.55;0.55;;;;;;;5.89;49.52;101154.97;5158309;28;20515;-79
2023/04/06 01:46:24;;;;;;;0.80;0.80;;;;;;;5.77;49.67;101154.16;5160973;28;20512;-78
2023/04/06 01:48:55;;;;;;;1.17;1.10;;;;;;;5.76;48.98;101157.63;5159734;28;20121;-79
2023/04/06 01:51:26;;;;;;;0.90;0.90;;;;;;;5.66;49.67;101150.66;5146421;28;20039;-79
2023/04/06 01:53:57;;;;;;;6.32;4.97;;;;;;;5.74;49.79;101150.69;5175239;28;20040;-79
2023/04/06 01:56:27;;;;;;;0.40;0.40;;;;;;;5.58;49.75;101148.03;5145066;28;20030;-78
2023/04/06 01:58:58;;;;;;;0.77;0.77;;;;;;;5.62;50.12;101156.75;5164770;28;20030;-79
2023/04/06 02:01:28;;;;;;;1.20;1.15;;;;;;;5.61;49.52;101142.84;5175619;28;20568;-79
2023/04/06 02:03:59;;;;;;;0.30;0.30;;;;;;;5.62;49.84;101147.19;5165066;28;20034;-79
2023/04/06 02:06:30;;;;;;;0.60;0.60;;;;;;;5.59;50.56;101141.13;5157626;28;20057;-79
2023/04/06 02:09:00;;;;;;;1.88;1.77;;;;;;;5.60;49.72;101135.91;5160253;28;20686;-79
2023/04/06 02:11:31;;;;;;;0.80;0.80;;;;;;;5.59;49.31;101138.50;5159556;28;20122;-78
2023/04/06 02:14:01;;;;;;;1.48;0.85;;;;;;;5.51;49.27;101135.91;5129289;28;20030;-79
2023/04/06 02:16:32;;;;;;;12.23;1.70;;;;;;;5.47;50.67;101145.44;5142780;28;20046;-79
2023/04/06 02:19:02;;;;;;;0.82;0.82;;;;;;;5.46;50.67;101140.25;5161067;28;20038;-79
2023/04/06 02:21:33;;;;;;;1.80;1.70;;;;;;;5.47;50.16;101139.38;5143810;28;20089;-80
2023/04/06 02:24:04;;;;;;;1.23;1.17;;;;;;;5.43;50.41;101140.22;5143194;28;20057;-80
2023/04/06 02:26:35;;;;;;;1.02;1.02;;;;;;;5.42;49.77;101143.69;5145212;28;20039;-79
2023/04/06 02:29:06;;;;;;;1.15;1.15;;;;;;;5.35;49.03;101135.88;5174607;28;20556;-79
2023/04/06 02:31:36;;;;;;;1.60;1.50;;;;;;;5.29;50.68;101141.09;5159136;28;20525;-79
2023/04/06 02:34:10;;;;;;;1.75;1.65;;;;;;;5.19;51.50;101134.13;5142492;28;20190;-79
2023/04/06 02:36:41;;;;;;;2.08;1.55;;;;;;;5.22;50.13;101139.34;5158993;28;20037;-78
2023/04/06 02:39:12;;;;;;;0.40;0.40;;;;;;;5.27;50.07;101140.22;5174536;28;20137;-79
2023/04/06 02:41:43;;;;;;;1.27;1.23;;;;;;;5.25;50.01;101136.72;5125542;28;20744;-79
2023/04/06 02:44:21;;;;;;;0.40;0.40;;;;;;;5.22;51.21;101136.75;5159548;28;20153;-78
2023/04/06 02:46:51;;;;;;;1.27;1.20;;;;;;;5.25;50.96;101141.09;5161108;28;20154;-79
2023/04/06 02:49:22;;;;;;;4.25;1.58;;;;;;;5.22;51.12;101126.34;5162288;28;20030;-79
2023/04/06 02:51:53;;;;;;;0.57;0.57;;;;;;;5.24;50.70;101131.53;5164351;28;20030;-79
2023/04/06 02:54:23;;;;;;;1.77;1.67;;;;;;;5.23;50.02;101129.78;5128347;28;20069;-79
2023/04/06 02:56:54;;;;;;;1.02;1.02;;;;;;;5.25;51.46;101128.06;5162644;28;20030;-79
2023/04/06 02:59:25;;;;;;;2.33;2.08;;;;;;;5.20;50.95;101130.66;5162364;28;20026;-78
2023/04/06 03:01:55;;;;;;;1.45;1.35;;;;;;;5.16;51.19;101128.94;5163900;28;20041;-79
2023/04/06 03:04:26;;;;;;;0.82;0.82;;;;;;;5.04;52.62;101122.84;5164498;28;20050;-79
2023/04/06 03:06:57;;;;;;;0.90;0.90;;;;;;;5.02;52.81;101131.50;5167506;28;20045;-79
2023/04/06 03:09:27;;;;;;;0.40;0.40;;;;;;;5.08;50.99;101126.31;5163086;28;20022;-79
2023/04/06 03:11:57;;;;;;;1.55;1.45;;;;;;;5.10;51.31;101128.91;5162293;28;20042;-79
2023/04/06 03:14:28;;;;;;;1.48;1.38;;;;;;;5.00;51.50;101126.28;5160531;28;20579;-79
2023/04/06 03:16:58;;;;;;;0.80;0.80;;;;;;;4.96;52.46;101126.28;5178811;28;20026;-78
2023/04/06 03:19:29;;;;;;;0.93;0.93;;;;;;;4.96;51.63;101124.53;5145853;28;20059;-79
2023/04/06 03:22:00;;;;;;;0.80;0.80;;;;;;;4.95;51.50;101124.56;5162814;28;20026;-79
2023/04/06 03:24:30;;;;;;;2.80;1.48;;;;;;;4.86;51.89;101128.88;5160787;28;20038;-79
2023/04/06 03:27:01;;;;;;;0.90;0.90;;;;;;;4.89;50.95;101131.44;5163648;28;20034;-79
2023/04/06 03:29:31;;;;;;;0.88;0.88;;;;;;;4.87;50.70;101121.91;5163787;28;20030;-79
2023/04/06 03:32:02;;;;;;;0.85;0.85;;;;;;;4.81;51.69;101121.91;5159223;28;20031;-79
2023/04/06 03:34:33;;;;;;;0.57;0.57;;;;;;;4.84;51.48;101125.38;5159833;28;20041;-79
2023/04/06 03:37:03;;;;;;;0.80;0.80;;;;;;;4.80;50.95;101121.03;5161474;28;20023;-79
2023/04/06 03:39:34;;;;;;;0.73;0.73;;;;;;;4.81;50.98;101121.91;5144387;28;20501;-79
2023/04/06 03:42:04;;;;;;;1.55;1.45;;;;;;;4.79;50.66;101118.44;5179004;28;20870;-79
2023/04/06 03:44:35;;;;;;;0.30;0.30;;;;;;;4.77;51.34;101126.22;5161036;28;20887;-79
2023/04/06 03:47:05;;;;;;;1.50;1.40;;;;;;;4.77;50.71;101121.03;5161289;28;20036;-78
2023/04/06 03:49:36;;;;;;;1.05;1.05;;;;;;;4.68;51.91;101114.06;5152759;28;20042;-80
2023/04/06 03:52:10;;;;;;;0.40;0.40;;;;;;;4.64;52.17;101109.72;5124690;28;20038;-78
2023/04/06 03:54:40;;;;;;;1.27;1.17;;;;;;;4.70;51.34;101112.34;5162523;28;20039;-79
2023/04/06 03:57:11;;;;;;;1.67;1.58;;;;;;;4.67;52.75;101109.72;5163454;28;20033;-79
2023/04/06 03:59:41;;;;;;;1.88;1.77;;;;;;;4.64;51.52;101109.72;5163118;28;20041;-79
2023/04/06 04:02:12;;;;;;;0.65;0.65;;;;;;;4.61;50.83;101109.69;5160638;28;20108;-79
2023/04/06 04:04:42;;;;;;;0.57;0.57;;;;;;;4.55;51.95;101109.69;5160112;28;20034;-80
2023/04/06 04:07:13;;;;;;;1.27;1.27;;;;;;;4.58;51.90;101109.69;5130726;28;20026;-80
2023/04/06 04:09:43;;;;;;;1.17;1.08;;;;;;;4.55;51.81;101110.53;5152456;28;20049;-79
2023/04/06 04:12:15;;;;;;;1.20;1.20;;;;;;;4.52;52.44;101102.75;5175203;28;20038;-78
2023/04/06 04:14:45;;;;;;;1.70;1.60;;;;;;;4.52;51.85;101112.25;5139262;28;20733;-79
2023/04/06 04:17:16;;;;;;;0.50;0.50;;;;;;;4.52;51.97;101109.66;5164553;28;20038;-79
2023/04/06 04:19:46;;;;;;;0.50;0.50;;;;;;;4.50;51.76;101109.66;5164823;28;20119;-80
2023/04/06 04:24:55;;;;;;;0.68;0.68;;;;;;;4.48;52.02;101113.97;5189483;28;20254;-81
2023/04/06 04:27:25;;;;;;;3.78;1.48;;;;;;;4.51;52.22;101113.13;5172754;28;20014;-83
2023/04/06 04:29:55;;;;;;;1.00;1.00;;;;;;;4.50;52.26;101108.81;5168117;28;20056;-81
2023/04/06 04:32:27;;;;;;;1.33;1.33;;;;;;;4.51;51.96;101113.13;5182638;28;20249;-82
2023/04/06 04:34:57;;;;;;;1.13;1.13;;;;;;;4.49;52.60;101109.66;5147530;28;20046;-81
2023/04/06 04:37:28;;;;;;;3.08;2.13;;;;;;;4.46;52.98;101109.63;5152969;28;20038;-81
2023/04/06 04:39:58;;;;;;;0.60;0.60;;;;;;;4.46;52.25;101107.03;5132165;28;20042;-81
2023/04/06 04:42:29;;;;;;;0.73;0.73;;;;;;;4.49;52.24;101114.84;5145934;28;20093;-81
2023/04/06 04:44:59;;;;;;;0.35;0.35;;;;;;;4.47;52.04;101103.59;5162272;28;20038;-82
2023/04/06 04:47:30;;;;;;;0.82;0.82;;;;;;;4.48;52.31;101108.78;5147235;28;20081;-80
2023/04/06 04:50:00;;;;;;;1.67;0.93;;;;;;;4.44;51.91;101108.75;5162488;28;20065;-80
2023/04/06 04:52:31;;;;;;;2.50;1.60;;;;;;;4.37;52.25;101106.13;5143689;28;20042;-79
2023/04/06 04:55:01;;;;;;;2.88;1.90;;;;;;;4.33;52.16;101094.00;5140995;28;20112;-82
2023/04/06 04:57:32;;;;;;;1.20;1.20;;;;;;;4.39;52.71;101113.94;5174550;28;20030;-82
2023/04/06 05:00:03;;;;;;;3.92;3.10;;;;;;;4.39;52.08;101116.53;5174166;28;20277;-81
2023/04/06 05:02:33;;;;;;;0.80;0.80;;;;;;;4.37;52.12;101113.94;5174863;28;20034;-80
2023/04/06 05:05:04;;;;;;;1.67;1.58;;;;;;;4.37;52.58;101119.13;5156858;28;20508;-79
2023/04/06 05:07:34;;;;;;;0.77;0.77;;;;;;;4.35;52.38;101120.84;5143493;28;20037;-78
2023/04/06 05:10:05;;;;;;;2.20;2.00;;;;;;;4.33;52.21;101120.00;5150369;28;20417;-82
2023/04/06 05:12:37;;;;;;;0.93;0.93;;;;;;;4.30;52.48;101125.16;5154530;28;20030;-79
2023/04/06 05:15:08;;;;;;;0.75;0.75;;;;;;;4.28;53.65;101120.81;5140608;28;20194;-79
2023/04/06 05:17:39;;;;;;;1.02;1.02;;;;;;;4.27;53.73;101121.69;5160898;28;20232;-79
2023/04/06 05:20:10;;;;;;;0.73;0.73;;;;;;;4.26;53.21;101118.19;5157811;28;20042;-79
2023/04/06 05:22:41;;;;;;;1.25;1.25;;;;;;;4.29;53.10;101126.00;5172305;28;20093;-79
2023/04/06 05:25:11;;;;;;;1.80;1.70;;;;;;;4.28;53.14;101124.28;5171856;28;20058;-80
2023/04/06 05:27:42;;;;;;;0.50;0.50;;;;;;;4.28;53.88;101123.41;5156211;28;20029;-80
2023/04/06 05:30:12;;;;;;;0.30;0.30;;;;;;;4.27;53.46;101119.94;5156414;28;20057;-81
2023/04/06 05:32:44;;;;;;;2.35;1.63;;;;;;;4.29;53.80;101118.22;5172017;28;20440;-79
2023/04/06 05:35:14;;;;;;;0.52;0.52;;;;;;;4.31;53.86;101120.81;5155065;28;20065;-81
2023/04/06 05:37:45;;;;;;;1.98;1.85;;;;;;;4.34;53.61;101118.25;5172585;28;20145;-79
2023/04/06 05:40:16;;;;;;;0.50;0.50;;;;;;;4.35;52.77;101115.66;5170974;28;20042;-78
2023/04/06 05:42:46;;;;;;;1.13;1.05;;;;;;;4.36;53.07;101117.38;5157014;28;20097;-84
2023/04/06 05:45:18;;;;;;;1.17;1.00;;;;;;;4.38;53.90;101118.28;5155423;28;20042;-81
2023/04/06 05:47:48;;;;;;;1.88;1.63;;;;;;;4.39;52.99;101114.81;5156501;28;20439;-80
2023/04/06 05:50:19;;;;;;;2.60;2.22;;;;;;;4.45;52.57;101118.28;5156736;28;20054;-79
2023/04/06 05:52:49;;;;;;;5.38;3.28;;;;;;;4.44;52.37;101109.63;5155260;28;20034;-79
2023/04/06 05:55:20;;;;;;;1.10;1.10;;;;;;;4.47;53.04;101111.38;5141552;28;20042;-82
2023/04/06 05:57:50;;;;;;;4.00;1.85;;;;;;;4.48;53.30;101110.53;5169774;28;21689;-79
2023/04/06 06:00:21;;;;;;;1.10;1.10;;;;;;;4.50;53.11;101103.59;5125729;28;20109;-78
2023/04/06 06:02:51;;;;;;;2.25;2.15;;;;;;;4.55;52.84;101107.94;5143258;28;20072;-79
2023/04/06 06:05:22;;;;;;;0.73;0.73;;;;;;;4.54;52.76;101107.94;5154544;28;20050;-81
2023/04/06 06:07:52;;;;;;;0.50;0.50;;;;;;;4.45;54.21;101106.19;5155814;28;20117;-80
2023/04/06 06:10:23;;;;;;;1.50;1.40;;;;;;;4.54;53.63;101103.63;5171454;28;20053;-80
2023/04/06 06:12:53;;;;;;;0.50;0.50;;;;;;;4.60;54.01;101105.34;5154871;28;20048;-80
2023/04/06 06:15:24;;;;;;;1.67;1.58;;;;;;;4.60;53.71;101112.31;5122810;28;20503;-81
2023/04/06 06:17:54;;;;;;;1.40;1.35;;;;;;;4.64;55.43;101117.50;5141296;28;20140;-78
2023/04/06 06:20:25;;;;;;;1.08;1.08;;;;;;;4.64;53.85;101119.22;5155358;28;20047;-79
2023/04/06 06:22:56;;;;;;;4.28;1.08;;;;;;;4.72;55.14;101110.63;5156934;28;20061;-78
2023/04/06 06:25:26;;;;;;;2.13;2.03;;;;;;;4.78;53.96;101114.09;5155089;28;20050;-80
2023/04/06 06:27:58;;;;;;;0.73;0.73;;;;;;;4.80;55.74;101117.56;5155018;28;20037;-78
2023/04/06 06:30:28;;;;;;;0.88;0.88;;;;;;;4.82;56.08;101113.25;5138542;28;20034;-79
2023/04/06 06:32:59;;;;;;;1.70;1.60;;;;;;;4.93;53.51;101106.31;5170827;28;20119;-80
2023/04/06 06:35:30;;;;;;;0.75;0.75;;;;;;;4.99;53.46;101105.47;5156358;28;20292;-78
2023/04/06 06:38:00;;;;;;;1.30;1.25;;;;;;;5.09;53.64;101107.25;5140704;28;20050;-79
2023/04/06 06:40:31;;;;;;;0.57;0.57;;;;;;;5.12;54.34;101106.38;5153063;28;20899;-78
2023/04/06 06:43:01;;;;;;;1.15;1.15;;;;;;;5.17;53.69;101105.53;5154077;28;20041;-81
2023/04/06 06:45:31;;;;;;;0.98;0.98;;;;;;;5.24;54.65;101103.81;5154416;28;20050;-78
2023/04/06 06:48:02;;;;;;;2.85;2.65;;;;;;;5.34;54.46;101100.31;5161353;28;20717;-81
2023/04/06 06:50:32;;;;;;;2.15;2.00;;;;;;;5.39;54.00;101092.50;5171752;28;20496;-79
2023/04/06 06:53:03;;;;;;;0.50;0.50;;;;;;;5.46;54.82;101096.00;5154239;28;20029;-80
2023/04/06 06:55:36;;;;;;;1.38;1.27;;;;;;;5.51;54.59;101095.13;5171388;28;20504;-80
2023/04/06 06:58:06;;;;;;;3.47;2.07;;;;;;;5.63;54.04;101099.47;5139438;28;20031;-81
2023/04/06 07:00:37;;;;;;;3.63;2.22;;;;;;;5.71;54.05;101096.00;5142260;28;20296;-82
2023/04/06 07:03:07;;;;;;;0.43;0.43;;;;;;;5.73;53.86;101104.66;5138764;28;20330;-79
2023/04/06 07:05:38;;;;;;;0.45;0.45;;;;;;;5.68;55.59;101091.66;5156003;28;20117;-79
2023/04/06 07:08:08;;;;;;;0.65;0.60;;;;;;;5.73;55.05;101089.06;5156006;28;20027;-79
2023/04/06 07:10:39;;;;;;;1.25;1.20;;;;;;;5.80;54.24;101090.78;5170590;28;20058;-82
2023/04/06 07:13:09;;;;;;;2.40;1.95;;;;;;;5.87;54.25;101087.28;5140257;28;20568;-80
2023/04/06 07:15:40;;;;;;;3.28;0.90;;;;;;;5.98;53.22;101085.53;5130540;28;20077;-82
2023/04/06 07:18:10;;;;;;;6.03;1.17;;;;;;;5.99;54.32;101082.06;5155305;28;20038;-81
2023/04/06 07:20:41;;;;;;;0.43;0.43;;;;;;;6.01;54.44;101084.69;5170893;28;20154;-79
2023/04/06 07:23:11;;;;;;;1.60;1.52;;;;;;;6.08;55.15;101086.41;5155769;28;20034;-80
2023/04/06 07:25:42;;;;;;;3.30;2.25;;;;;;;6.13;54.15;101086.41;5172618;28;20050;-80
2023/04/06 07:28:12;;;;;;;0.30;0.30;;;;;;;6.22;53.88;101077.66;5175854;28;20473;-80
2023/04/06 07:30:43;;;;;;;0.85;0.85;;;;;;;6.25;54.13;101083.75;5146262;28;20050;-81
2023/04/06 07:33:13;;;;;;;0.77;0.77;;;;;;;6.24;55.17;101081.16;5161207;28;20033;-80
2023/04/06 07:35:45;;;;;;;0.73;0.73;;;;;;;6.35;54.61;101088.91;5142915;28;20575;-79
2023/04/06 07:38:15;;;;;;;0.73;0.73;;;;;;;6.32;55.94;101094.16;5141349;28;20507;-79
2023/04/06 07:40:46;;;;;;;2.38;1.77;;;;;;;6.38;55.33;101088.91;5171788;28;20530;-80
2023/04/06 07:43:16;;;;;;;0.73;0.73;;;;;;;6.43;55.02;101087.16;5163702;28;20341;-81
2023/04/06 07:45:47;;;;;;;0.47;0.47;;;;;;;6.52;55.63;101087.13;5157673;28;20431;-83
2023/04/06 07:48:17;;;;;;;0.80;0.80;;;;;;;6.60;55.10;101084.50;5163097;28;20034;-81
2023/04/06 07:50:48;;;;;;;5.28;2.05;;;;;;;6.49;55.70;101092.34;5173499;28;20506;-80
2023/04/06 07:53:18;;;;;;;1.60;1.50;;;;;;;6.62;55.47;101093.16;5171947;28;20069;-80
2023/04/06 07:55:49;;;;;;;1.92;1.83;;;;;;;6.65;56.08;101092.28;5143104;28;20054;-80
2023/04/06 07:58:19;;;;;;;4.95;2.35;;;;;;;6.77;54.87;101087.88;5162492;28;20026;-80
2023/04/06 08:00:50;;;;;;;1.23;0.90;;;;;;;6.75;55.28;101081.78;5144133;28;20129;-80
2023/04/06 08:03:21;;;;;;;0.85;0.75;;;;;;;6.81;56.04;101080.91;5143468;28;20050;-79
2023/04/06 08:05:52;;;;;;;0.77;0.77;;;;;;;6.90;55.38;101078.22;5175006;28;20054;-81
2023/04/06 08:08:23;;;;;;;1.88;1.77;;;;;;;6.99;55.20;101082.53;5162834;28;20672;-82
2023/04/06 08:10:53;;;;;;;0.77;0.77;;;;;;;7.08;54.83;101076.38;5157563;28;20047;-80
2023/04/06 08:13:24;;;;;;;1.67;1.58;;;;;;;7.12;55.82;101072.88;5128295;28;20116;-81
2023/04/06 08:15:54;;;;;;;1.00;0.98;;;;;;;7.13;56.38;101074.59;5175174;28;20458;-79
2023/04/06 08:18:25;;;;;;;0.88;0.82;;;;;;;7.22;56.03;101073.66;5177212;28;20035;-79
2023/04/06 08:20:56;;;;;;;6.07;3.70;;;;;;;7.33;56.10;101070.97;5145421;28;20038;-80
2023/04/06 08:23:27;;;;;;;1.15;1.15;;;;;;;7.37;56.39;101072.69;5175853;28;20167;-80
2023/04/06 08:25:57;;;;;;;0.77;0.77;;;;;;;7.51;56.09;101060.38;5158820;28;20496;-81
2023/04/06 08:28:28;;;;;;;1.00;1.00;;;;;;;7.64;55.33;101066.34;5176083;28;20084;-79
2023/04/06 08:30:58;;;;;;;1.35;1.35;;;;;;;7.64;57.72;101060.28;5157684;28;20078;-79
2023/04/06 08:33:29;;;;;;;4.03;2.85;;;;;;;7.75;56.37;101061.00;5173933;28;20073;-78
2023/04/06 08:36:06;;;;;;;0.70;0.70;;;;;;;7.81;56.27;101060.09;5161884;28;20043;-79
2023/04/06 08:38:37;;;;;;;1.52;1.42;;;;;;;7.90;56.41;101056.50;5144358;28;20025;-79
2023/04/06 08:41:12;;;;;;;1.05;1.05;;;;;;;7.95;56.61;101052.97;5158654;28;20496;-80
2023/04/06 08:43:53;;;;;;;0.60;0.60;;;;;;;8.03;56.57;101058.97;5140661;28;20042;-79
2023/04/06 08:46:29;;;;;;;0.50;0.50;;;;;;;8.09;56.71;101052.81;5156208;28;20095;-80
2023/04/06 08:49:06;;;;;;;1.90;1.65;;;;;;;8.16;56.87;101053.63;5145004;28;20128;-79
2023/04/06 08:51:37;;;;;;;1.90;1.70;;;;;;;8.26;56.16;101051.75;5155565;28;20392;-80
2023/04/06 08:54:08;;;;;;;0.80;0.80;;;;;;;8.38;56.22;101053.34;5173144;28;20070;-82
2023/04/06 08:56:39;;;;;;;0.55;0.55;;;;;;;8.41;56.07;101053.31;5157428;28;20559;-79
2023/04/06 08:59:10;;;;;;;4.88;2.88;;;;;;;8.49;55.69;101052.34;5144286;28;20042;-79
2023/04/06 09:01:45;;;;;;;0.90;0.90;;;;;;;8.57;55.54;101054.00;5157384;28;20440;-78
2023/04/06 09:04:16;;;;;;;0.95;0.95;;;;;;;8.63;55.63;101053.94;5156363;28;20038;-78
2023/04/06 09:06:46;;;;;;;1.17;1.13;;;;;;;8.69;54.73;101051.25;5173865;28;20058;-80
2023/04/06 09:09:17;;;;;;;2.03;1.85;;;;;;;8.72;55.13;101059.03;5130555;28;20034;-80
2023/04/06 09:11:50;;;;;;;1.80;1.20;;;;;;;8.76;54.94;101060.72;5159582;28;20124;-79
2023/04/06 09:14:40;;;;;;;1.10;1.00;;;;;;;8.87;55.07;101054.47;5174072;28;20046;-79
2023/04/06 09:17:24;;;;;;;0.95;0.95;;;;;;;8.90;54.71;101054.41;5156411;28;20182;-80
2023/04/06 09:19:55;;;;;;;0.93;0.93;;;;;;;8.98;55.42;101052.56;5172313;28;20238;-79
2023/04/06 09:22:35;;;;;;;1.15;1.10;;;;;;;9.00;54.26;101052.56;5173876;28;20037;-79
2023/04/06 09:25:08;;;;;;;0.68;0.68;;;;;;;9.08;54.62;101054.16;5139729;28;20046;-79
2023/04/06 09:27:39;;;;;;;1.13;1.13;;;;;;;9.19;54.33;101047.88;5159303;28;20031;-80
2023/04/06 09:30:15;;;;;;;1.33;1.23;;;;;;;9.22;53.82;101053.94;5172579;28;20948;-80
2023/04/06 09:32:54;;;;;;;3.05;2.33;;;;;;;9.31;53.70;101052.91;5145418;28;20062;-79
2023/04/06 09:35:26;;;;;;;2.72;2.53;;;;;;;9.34;54.09;101050.25;5156422;28;20488;-81
2023/04/06 09:37:57;;;;;;;1.30;1.30;;;;;;;9.38;53.41;101054.53;5158732;28;20566;-82
2023/04/06 09:40:28;;;;;;;1.92;1.83;;;;;;;9.44;53.14;101061.41;5156889;28;20046;-80
2023/04/06 09:42:59;;;;;;;1.80;1.70;;;;;;;9.48;52.83;101057.00;5138834;28;20476;-82
2023/04/06 09:45:30;;;;;;;2.28;2.10;;;;;;;9.54;52.26;101054.28;5156430;28;20060;-79
2023/04/06 09:48:01;;;;;;;3.90;1.80;;;;;;;9.66;52.83;101040.97;5171095;28;20031;-82
2023/04/06 09:50:33;;;;;;;1.73;1.23;;;;;;;9.75;53.14;101046.03;5161749;28;20709;-80
2023/04/06 09:53:04;;;;;;;1.35;1.33;;;;;;;9.76;53.25;101039.91;5171418;28;20034;-80
2023/04/06 09:55:41;;;;;;;1.77;1.67;;;;;;;9.83;51.67;101045.91;5171527;28;20251;-81
2023/04/06 09:58:25;;;;;;;1.90;1.80;;;;;;;9.95;51.13;101047.44;5172781;28;20399;-81
2023/04/06 10:01:06;;;;;;;1.40;1.35;;;;;;;10.00;51.72;101048.19;5171864;28;20046;-80
2023/04/06 10:04:02;;;;;;;2.10;2.00;;;;;;;10.08;50.67;101045.44;5124676;28;20022;-79
2023/04/06 10:06:35;;;;;;;1.25;1.15;;;;;;;10.14;50.18;101044.41;5155219;28;20129;-80
2023/04/06 10:09:08;;;;;;;2.13;2.03;;;;;;;10.14;48.11;101039.19;5157019;28;20108;-81
2023/04/06 10:11:38;;;;;;;1.23;1.13;;;;;;;10.14;49.16;101037.44;5162993;28;20626;-79
2023/04/06 10:14:09;;;;;;;2.47;2.05;;;;;;;10.19;47.77;101037.34;5171811;28;20073;-81
2023/04/06 10:16:40;;;;;;;3.20;2.47;;;;;;;10.32;47.03;101048.44;5142098;28;20045;-81
2023/04/06 10:19:18;;;;;;;1.27;1.23;;;;;;;10.28;46.49;101039.78;5157328;28;20035;-81
2023/04/06 10:21:54;;;;;;;1.52;1.42;;;;;;;10.34;47.46;101044.00;5158488;28;20042;-79
2023/04/06 10:24:25;;;;;;;2.25;2.13;;;;;;;10.38;47.41;101043.94;5160513;28;20054;-81
2023/04/06 10:27:03;;;;;;;1.65;1.55;;;;;;;10.46;47.32;101046.44;5163611;28;20034;-78
2023/04/06 10:29:48;;;;;;;1.58;1.48;;;;;;;10.54;48.36;101036.63;5135162;28;20837;-80
2023/04/06 10:32:18;;;;;;;2.50;2.30;;;;;;;10.60;48.04;101040.00;5159546;28;20500;-79
2023/04/06 10:34:49;;;;;;;1.30;1.27;;;;;;;10.58;48.05;101045.28;5147372;28;20046;-81
2023/04/06 10:37:20;;;;;;;1.98;1.75;;;;;;;10.59;47.91;101046.16;5163386;28;20030;-79
2023/04/06 10:39:59;;;;;;;2.05;1.95;;;;;;;10.75;48.67;101041.44;5178495;28;20035;-79
2023/04/06 10:42:38;;;;;;;5.95;2.67;;;;;;;10.65;48.67;101041.63;5161057;28;20026;-79
2023/04/06 10:45:20;;;;;;;3.33;3.00;;;;;;;10.76;49.01;101038.75;5160313;28;20050;-78
2023/04/06 10:47:54;;;;;;;2.83;2.55;;;;;;;10.73;48.87;101037.97;5177263;28;20101;-81
2023/04/06 10:50:25;;;;;;;1.38;1.27;;;;;;;10.73;48.55;101041.47;5143560;28;20044;-80
2023/04/06 10:53:02;;;;;;;2.05;1.95;;;;;;;10.83;49.11;101044.75;5138779;28;20295;-80
2023/04/06 10:55:34;;;;;;;1.02;1.00;;;;;;;10.84;48.56;101049.94;5157046;28;20038;-81
2023/04/06 10:58:10;;;;;;;2.20;1.20;;;;;;;10.78;49.30;101042.22;5145588;28;20034;-79
2023/04/06 11:00:48;;;;;;;2.10;1.92;;;;;;;10.80;50.06;101036.94;5145915;28;20045;-80
2023/04/06 11:03:19;;;;;;;1.85;1.75;;;;;;;10.90;50.13;101035.81;5156008;28;20431;-81
2023/04/06 11:05:51;;;;;;;0.40;0.40;;;;;;;10.85;50.04;101037.69;5163901;28;20042;-79
2023/04/06 11:08:25;;;;;;;2.15;1.95;;;;;;;10.87;49.28;101033.25;5162457;28;20027;-79
2023/04/06 11:11:06;;;;;;;2.25;2.05;;;;;;;10.92;49.02;101031.41;5164091;28;20307;-78
2023/04/06 11:13:49;;;;;;;17.90;3.03;;;;;;;11.02;49.28;101029.41;5164751;28;20610;-76
2023/04/06 11:16:27;;;;;;;5.47;2.00;;;;;;;11.17;48.95;101028.19;5166724;28;20054;-78
2023/04/06 11:19:03;;;;;;;3.22;2.03;;;;;;;11.26;48.92;101032.34;5164334;28;20041;-80
2023/04/06 11:21:43;;;;;;;1.80;1.70;;;;;;;11.31;48.39;101022.59;5147918;28;20046;-80
2023/04/06 11:24:16;;;;;;;2.22;2.13;;;;;;;11.31;47.25;101030.47;5165041;28;20038;-79
2023/04/06 11:26:56;;;;;;;1.58;1.40;;;;;;;11.35;47.69;101026.84;5152400;28;20070;-78
2023/04/06 11:29:31;;;;;;;1.92;1.50;;;;;;;11.36;47.25;101027.72;5183148;28;20539;-80
2023/04/06 11:32:08;;;;;;;1.67;1.58;;;;;;;11.55;46.98;101026.34;5168386;28;20302;-80
2023/04/06 11:34:40;;;;;;;1.88;1.45;;;;;;;11.62;46.35;101029.69;5167766;28;20491;-81
2023/04/06 11:37:12;;;;;;;0.82;0.82;;;;;;;11.77;46.10;101020.53;5169288;28;20034;-80
2023/04/06 11:39:51;;;;;;;2.38;0.85;;;;;;;11.86;45.57;101025.50;5185040;28;20054;-79
2023/04/06 11:42:27;;;;;;;2.20;2.03;;;;;;;11.86;44.68;101027.28;5166571;28;20039;-80
2023/04/06 11:44:58;;;;;;;0.93;0.93;;;;;;;11.68;44.81;101024.25;5184158;28;20046;-78
2023/04/06 11:47:34;;;;;;;1.75;1.65;;;;;;;11.70;46.47;101021.56;5154242;28;20026;-81
2023/04/06 11:50:09;;;;;;;1.63;1.52;;;;;;;11.59;45.91;101016.59;5170302;28;20042;-81
2023/04/06 11:52:41;;;;;;;1.70;1.60;;;;;;;11.55;46.81;101018.44;5168669;28;20026;-81
2023/04/06 11:55:16;;;;;;;1.48;1.38;;;;;;;11.76;45.96;101021.44;5166870;28;20387;-82